createdAt,value
2019-04-27T00:01:15.747Z,100739.16
2019-04-27T00:03:48.838Z,100731.32
2019-04-27T00:06:23.703Z,100735.89
2019-04-27T00:08:56.653Z,100738.09
2019-04-27T00:11:33.189Z,100731.49
2019-04-27T00:14:04.464Z,100736.03
2019-04-27T00:16:53.597Z,100726.96
2019-04-27T00:19:27.411Z,100739.16
2019-04-27T00:22:09.790Z,100738.20
2019-04-27T00:24:41.301Z,100740.52
2019-04-27T00:27:13.420Z,100740.86
2019-04-27T00:29:44.957Z,100737.57
2019-04-27T00:32:16.666Z,100732.77
2019-04-27T00:34:48.318Z,100731.42
2019-04-27T00:37:36.905Z,100734.30
2019-04-27T00:40:10.063Z,100735.42
2019-04-27T00:42:41.724Z,100733.20
2019-04-27T00:45:13.571Z,100731.24
2019-04-27T00:47:56.444Z,100733.84
2019-04-27T00:50:18.845Z,100730.48
2019-04-27T00:52:50.353Z,100730.95
2019-04-27T00:55:23.435Z,100735.17
2019-04-27T00:58:13.162Z,100726.13
2019-04-27T01:00:53.979Z,100723.16
2019-04-27T01:03:43.120Z,100725.58
2019-04-27T01:06:14.937Z,100726.73
2019-04-27T01:08:46.192Z,100723.66
2019-04-27T01:11:17.442Z,100728.29
2019-04-27T01:13:48.690Z,100722.56
2019-04-27T01:16:23.723Z,100729.78
2019-04-27T01:18:53.076Z,100721.34
2019-04-27T01:21:24.572Z,100721.44
2019-04-27T01:23:56.843Z,100717.99
2019-04-27T01:26:32.176Z,100712.02
2019-04-27T01:29:14.588Z,100712.53
2019-04-27T01:31:48.681Z,100714.63
2019-04-27T01:34:20.054Z,100721.63
2019-04-27T01:36:51.738Z,100717.91
2019-04-27T01:39:23.469Z,100721.84
2019-04-27T01:41:55.015Z,100716.62
2019-04-27T01:44:26.260Z,100719.33
2019-04-27T01:46:57.507Z,100722.68
2019-04-27T01:49:29.627Z,100718.17
2019-04-27T01:52:01.849Z,100717.19
2019-04-27T01:54:33.528Z,100717.55
2019-04-27T01:57:05.586Z,100714.67
2019-04-27T01:59:38.618Z,100716.16
2019-04-27T02:02:29.184Z,100716.03
2019-04-27T02:05:11.609Z,100709.60
2019-04-27T02:07:44.646Z,100707.38
2019-04-27T02:10:15.904Z,100709.52
2019-04-27T02:12:48.686Z,100713.51
2019-04-27T02:15:20.038Z,100709.02
2019-04-27T02:17:51.671Z,100707.30
2019-04-27T02:20:22.910Z,100701.97
2019-04-27T02:22:54.479Z,100706.05
2019-04-27T02:25:26.119Z,100704.55
2019-04-27T02:27:59.411Z,100705.75
2019-04-27T02:30:32.606Z,100710.80
2019-04-27T02:33:24.232Z,100709.47
2019-04-27T02:35:55.780Z,100709.30
2019-04-27T02:38:27.333Z,100708.95
2019-04-27T02:40:59.999Z,100710.52
2019-04-27T02:43:32.872Z,100710.64
2019-04-27T02:46:04.551Z,100713.24
2019-04-27T02:48:51.986Z,100710.52
2019-04-27T02:51:13.533Z,100711.13
2019-04-27T02:54:00.154Z,100712.13
2019-04-27T02:56:31.354Z,100720.17
2019-04-27T02:59:02.839Z,100712.28
2019-04-27T03:01:35.986Z,100714.88
2019-04-27T03:04:07.197Z,100718.25
2019-04-27T03:06:39.772Z,100716.64
2019-04-27T03:09:11.126Z,100717.89
2019-04-27T03:11:42.902Z,100715.64
2019-04-27T03:14:36.404Z,100712.64
2019-04-27T03:17:19.900Z,100712.28
2019-04-27T03:19:52.625Z,100713.16
2019-04-27T03:22:25.886Z,100713.44
2019-04-27T03:25:00.093Z,100715.95
2019-04-27T03:27:33.184Z,100708.56
2019-04-27T03:30:06.727Z,100706.51
2019-04-27T03:32:42.528Z,100705.27
2019-04-27T03:35:12.916Z,100703.29
2019-04-27T03:37:44.520Z,100704.47
2019-04-27T03:40:15.619Z,100701.76
2019-04-27T03:42:50.247Z,100699.47
2019-04-27T03:45:21.759Z,100698.98
2019-04-27T03:47:53.400Z,100699.62
2019-04-27T03:50:26.475Z,100700.63
2019-04-27T03:53:10.302Z,100700.55
2019-04-27T03:56:00.100Z,100703.78
2019-04-27T03:58:39.790Z,100704.19
2019-04-27T04:01:11.081Z,100703.59
2019-04-27T04:03:44.069Z,100701.22
2019-04-27T04:06:15.825Z,100699.59
2019-04-27T04:08:49.875Z,100693.72
2019-04-27T04:11:39.549Z,100698.43
2019-04-27T04:14:20.237Z,100696.42
2019-04-27T04:16:53.143Z,100697.00
2019-04-27T04:19:24.716Z,100690.60
2019-04-27T04:21:55.967Z,100693.41
2019-04-27T04:24:29.368Z,100686.17
2019-04-27T04:27:00.197Z,100692.30
2019-04-27T04:29:31.609Z,100687.02
2019-04-27T04:32:03.257Z,100691.77
2019-04-27T04:34:34.857Z,100684.70
2019-04-27T04:37:06.405Z,100681.25
2019-04-27T04:39:40.233Z,100688.13
2019-04-27T04:42:30.021Z,100684.27
2019-04-27T04:45:06.046Z,100681.33
2019-04-27T04:47:45.080Z,100675.84
2019-04-27T04:50:16.628Z,100675.84
2019-04-27T04:52:50.000Z,100685.13
2019-04-27T04:55:21.273Z,100674.75
2019-04-27T04:57:52.455Z,100675.69
2019-04-27T05:00:24.988Z,100675.69
2019-04-27T05:02:56.343Z,100671.92
2019-04-27T05:05:29.336Z,100669.14
2019-04-27T05:08:00.885Z,100672.62
2019-04-27T05:10:32.424Z,100672.66
2019-04-27T05:13:03.870Z,100667.65
2019-04-27T05:15:35.018Z,100668.14
2019-04-27T05:18:06.470Z,100670.06
2019-04-27T05:20:39.813Z,100672.09
2019-04-27T05:23:11.209Z,100671.05
2019-04-27T05:25:42.400Z,100665.36
2019-04-27T05:28:13.906Z,100667.57
2019-04-27T05:30:45.460Z,100658.78
2019-04-27T05:33:18.491Z,100660.89
2019-04-27T05:35:50.298Z,100662.02
2019-04-27T05:38:21.546Z,100659.16
2019-04-27T05:40:54.257Z,100652.56
2019-04-27T05:43:31.767Z,100657.52
2019-04-27T05:46:35.552Z,100653.83
2019-04-27T05:49:09.368Z,100653.22
2019-04-27T05:51:41.876Z,100654.15
2019-04-27T05:54:12.536Z,100661.60
2019-04-27T05:56:44.294Z,100653.87
2019-04-27T05:59:15.952Z,100654.43
2019-04-27T06:01:49.328Z,100664.24
2019-04-27T06:04:20.708Z,100656.86
2019-04-27T06:06:52.463Z,100658.45
2019-04-27T06:09:24.029Z,100658.66
2019-04-27T06:11:55.761Z,100657.37
2019-04-27T06:14:26.787Z,100654.52
2019-04-27T06:16:59.657Z,100651.00
2019-04-27T06:19:30.887Z,100656.05
2019-04-27T06:22:02.484Z,100651.27
2019-04-27T06:24:34.546Z,100647.90
2019-04-27T06:27:06.102Z,100651.95
2019-04-27T06:29:39.330Z,100658.35
2019-04-27T06:32:10.886Z,100654.23
2019-04-27T06:34:42.397Z,100649.45
2019-04-27T06:37:13.594Z,100650.51
2019-04-27T06:39:45.190Z,100655.54
2019-04-27T06:42:18.713Z,100648.19
2019-04-27T06:44:49.519Z,100651.83
2019-04-27T06:47:20.977Z,100653.91
2019-04-27T06:49:52.219Z,100650.31
2019-04-27T06:52:23.473Z,100650.19
2019-04-27T06:54:54.966Z,100651.90
2019-04-27T06:57:26.576Z,100650.37
2019-04-27T06:59:59.136Z,100650.56
2019-04-27T07:02:30.580Z,100653.50
2019-04-27T07:05:02.257Z,100650.91
2019-04-27T07:07:33.909Z,100653.17
2019-04-27T07:10:06.493Z,100654.17
2019-04-27T07:12:40.716Z,100651.60
2019-04-27T07:15:10.508Z,100644.33
2019-04-27T07:17:41.965Z,100648.30
2019-04-27T07:20:13.399Z,100650.05
2019-04-27T07:22:45.022Z,100642.07
2019-04-27T07:25:16.661Z,100634.83
2019-04-27T07:27:49.358Z,100636.54
2019-04-27T07:30:20.748Z,100639.81
2019-04-27T07:32:52.096Z,100633.04
2019-04-27T07:35:24.376Z,100642.17
2019-04-27T07:37:56.356Z,100635.25
2019-04-27T07:40:28.916Z,100630.77
2019-04-27T07:43:03.258Z,100628.13
2019-04-27T07:45:39.574Z,100627.76
2019-04-27T07:48:10.931Z,100632.55
2019-04-27T07:50:42.076Z,100629.06
2019-04-27T07:53:13.320Z,100618.75
2019-04-27T07:55:44.470Z,100621.98
2019-04-27T07:58:15.611Z,100620.20
2019-04-27T08:00:47.259Z,100618.64
2019-04-27T08:03:19.535Z,100620.75
2019-04-27T08:05:50.873Z,100615.91
2019-04-27T08:08:22.304Z,100618.66
2019-04-27T08:10:53.884Z,100615.88
2019-04-27T08:13:25.435Z,100616.02
2019-04-27T08:15:56.788Z,100612.03
2019-04-27T08:18:29.863Z,100604.12
2019-04-27T08:21:02.749Z,100610.45
2019-04-27T08:23:34.261Z,100601.73
2019-04-27T08:26:08.775Z,100587.77
2019-04-27T08:28:54.031Z,100597.50
2019-04-27T08:31:28.679Z,100587.06
2019-04-27T08:34:00.100Z,100603.41
2019-04-27T08:36:31.321Z,100592.23
2019-04-27T08:39:03.264Z,100584.37
2019-04-27T08:41:35.769Z,100584.86
2019-04-27T08:44:07.206Z,100565.45
2019-04-27T08:46:38.630Z,100580.42
2019-04-27T08:49:10.193Z,100575.31
2019-04-27T08:51:41.760Z,100575.31
2019-04-27T08:54:13.210Z,100565.48
2019-04-27T08:56:44.658Z,100569.80
2019-04-27T08:59:15.709Z,100562.70
2019-04-27T09:01:49.188Z,100559.22
2019-04-27T09:04:20.235Z,100563.75
2019-04-27T09:06:52.983Z,100546.94
2019-04-27T09:09:34.876Z,100575.25
2019-04-27T09:12:24.254Z,100562.40
2019-04-27T09:15:06.592Z,100559.63
2019-04-27T09:17:39.776Z,100539.30
2019-04-27T09:20:12.575Z,100548.20
2019-04-27T09:22:43.834Z,100550.84
2019-04-27T09:25:15.256Z,100546.30
2019-04-27T09:27:46.811Z,100537.80
2019-04-27T09:30:19.085Z,100537.38
2019-04-27T09:32:51.290Z,100529.68
2019-04-27T09:35:22.904Z,100525.91
2019-04-27T09:37:56.239Z,100524.80
2019-04-27T09:40:27.116Z,100528.05
2019-04-27T09:42:59.005Z,100523.03
2019-04-27T09:45:30.448Z,100515.80
2019-04-27T09:48:02.786Z,100519.27
2019-04-27T09:50:36.061Z,100518.92
2019-04-27T09:53:07.554Z,100513.22
2019-04-27T09:55:39.109Z,100512.30
2019-04-27T09:58:10.189Z,100503.39
2019-04-27T10:00:41.699Z,100499.94
2019-04-27T10:03:13.352Z,100500.95
2019-04-27T10:05:45.969Z,100500.16
2019-04-27T10:08:18.214Z,100503.87
2019-04-27T10:10:49.756Z,100507.17
2019-04-27T10:13:21.916Z,100496.45
2019-04-27T10:15:53.163Z,100494.22
2019-04-27T10:18:26.456Z,100497.06
2019-04-27T10:21:01.918Z,100482.84
2019-04-27T10:23:30.831Z,100501.14
2019-04-27T10:26:01.932Z,100487.89
2019-04-27T10:28:33.065Z,100482.09
2019-04-27T10:31:04.327Z,100490.31
2019-04-27T10:33:35.946Z,100485.39
2019-04-27T10:36:07.223Z,100489.00
2019-04-27T10:38:38.678Z,100486.50
2019-04-27T10:41:10.224Z,100474.23
2019-04-27T10:43:41.886Z,100476.06
2019-04-27T10:46:13.559Z,100480.06
2019-04-27T10:48:45.693Z,100468.00
2019-04-27T10:51:17.252Z,100471.67
2019-04-27T10:53:48.707Z,100467.19
2019-04-27T10:56:20.255Z,100463.39
2019-04-27T10:58:51.808Z,100459.23
2019-04-27T11:01:23.459Z,100458.10
2019-04-27T11:04:02.344Z,100455.55
2019-04-27T11:06:38.455Z,100450.47
2019-04-27T11:09:10.970Z,100451.31
2019-04-27T11:11:42.064Z,100438.33
2019-04-27T11:14:13.714Z,100441.22
2019-04-27T11:16:45.914Z,100437.16
2019-04-27T11:19:17.112Z,100441.02
2019-04-27T11:21:48.743Z,100433.08
2019-04-27T11:24:20.133Z,100423.00
2019-04-27T11:26:51.381Z,100427.22
2019-04-27T11:29:22.619Z,100429.18
2019-04-27T11:31:55.536Z,100423.55
2019-04-27T11:34:28.308Z,100418.53
2019-04-27T11:37:01.375Z,100423.28
2019-04-27T11:39:32.728Z,100413.27
2019-04-27T11:42:04.380Z,100404.56
2019-04-27T11:44:36.018Z,100402.65
2019-04-27T11:47:07.691Z,100406.77
2019-04-27T11:49:39.982Z,100397.09
2019-04-27T11:52:11.618Z,100392.58
2019-04-27T11:54:42.716Z,100401.73
2019-04-27T11:57:14.304Z,100385.61
2019-04-27T11:59:45.859Z,100375.59
2019-04-27T12:02:17.586Z,100387.47
2019-04-27T12:04:49.276Z,100381.39
2019-04-27T12:07:20.622Z,100384.55
2019-04-27T12:09:52.177Z,100381.94
2019-04-27T12:12:26.112Z,100375.65
2019-04-27T12:14:57.327Z,100373.92
2019-04-27T12:17:29.265Z,100371.28
2019-04-27T12:20:00.631Z,100366.02
2019-04-27T12:22:32.286Z,100362.66
2019-04-27T12:25:06.378Z,100367.80
2019-04-27T12:27:45.804Z,100357.04
2019-04-27T12:30:21.387Z,100357.02
2019-04-27T12:32:52.629Z,100353.89
2019-04-27T12:35:25.653Z,100341.39
2019-04-27T12:37:57.062Z,100335.12
2019-04-27T12:40:28.309Z,100326.81
2019-04-27T12:42:59.761Z,100326.66
2019-04-27T12:45:30.791Z,100322.66
2019-04-27T12:48:02.415Z,100328.22
2019-04-27T12:50:33.910Z,100324.12
2019-04-27T12:53:07.908Z,100314.17
2019-04-27T12:55:40.629Z,100311.90
2019-04-27T12:58:19.890Z,100312.05
2019-04-27T13:00:59.062Z,100302.70
2019-04-27T13:03:33.473Z,100308.31
2019-04-27T13:06:04.940Z,100289.39
2019-04-27T13:08:37.607Z,100291.55
2019-04-27T13:11:08.853Z,100289.88
2019-04-27T13:13:40.517Z,100286.03
2019-04-27T13:16:11.757Z,100296.67
2019-04-27T13:18:43.070Z,100293.84
2019-04-27T13:21:15.703Z,100271.03
2019-04-27T13:24:00.916Z,100278.30
2019-04-27T13:26:21.751Z,100286.93
2019-04-27T13:28:53.312Z,100280.23
2019-04-27T13:31:25.768Z,100268.03
2019-04-27T13:33:56.975Z,100273.29
2019-04-27T13:36:28.594Z,100263.33
2019-04-27T13:39:00.236Z,100260.57
2019-04-27T13:41:33.032Z,100258.28
2019-04-27T13:44:06.423Z,100259.44
2019-04-27T13:46:56.012Z,100258.42
2019-04-27T13:49:47.715Z,100264.39
2019-04-27T13:52:20.794Z,100252.85
2019-04-27T13:54:52.355Z,100248.72
2019-04-27T13:57:23.800Z,100250.73
2019-04-27T13:59:55.355Z,100248.30
2019-04-27T14:02:32.305Z,100249.38
2019-04-27T14:05:00.100Z,100248.39
2019-04-27T14:07:31.222Z,100243.05
2019-04-27T14:10:02.787Z,100237.39
2019-04-27T14:12:34.150Z,100231.92
2019-04-27T14:15:05.687Z,100232.91
2019-04-27T14:17:36.982Z,100221.25
2019-04-27T14:20:09.731Z,100232.16
2019-04-27T14:22:41.469Z,100210.66
2019-04-27T14:25:12.822Z,100221.52
2019-04-27T14:27:44.490Z,100228.92
2019-04-27T14:30:17.331Z,100225.66
2019-04-27T14:32:48.471Z,100215.08
2019-04-27T14:35:19.848Z,100210.42
2019-04-27T14:37:51.133Z,100201.62
2019-04-27T14:40:22.748Z,100207.31
2019-04-27T14:42:54.214Z,100198.19
2019-04-27T14:45:26.301Z,100216.98
2019-04-27T14:47:58.199Z,100207.72
2019-04-27T14:50:30.392Z,100195.27
2019-04-27T14:53:01.943Z,100192.81
2019-04-27T14:55:33.292Z,100184.33
2019-04-27T14:58:04.438Z,100185.80
2019-04-27T15:00:35.887Z,100190.03
2019-04-27T15:03:07.231Z,100188.98
2019-04-27T15:05:38.887Z,100185.19
2019-04-27T15:08:10.999Z,100179.41
2019-04-27T15:10:42.298Z,100177.42
2019-04-27T15:13:13.340Z,100170.22
2019-04-27T15:15:45.205Z,100166.42
2019-04-27T15:18:16.239Z,100172.06
2019-04-27T15:20:48.099Z,100161.63
2019-04-27T15:23:20.139Z,100161.23
2019-04-27T15:25:51.514Z,100152.80
2019-04-27T15:28:24.684Z,100158.66
2019-04-27T15:31:00.965Z,100159.73
2019-04-27T15:33:53.367Z,100160.10
2019-04-27T15:36:30.845Z,100154.19
2019-04-27T15:39:07.865Z,100156.94
2019-04-27T15:42:03.389Z,100149.89
2019-04-27T15:44:36.455Z,100152.23
2019-04-27T15:47:10.333Z,100147.60
2019-04-27T15:49:45.059Z,100153.06
2019-04-27T15:52:12.264Z,100152.64
2019-04-27T15:54:44.534Z,100146.36
2019-04-27T15:57:18.609Z,100145.20
2019-04-27T15:59:48.968Z,100148.26
2019-04-27T16:02:20.552Z,100145.08
2019-04-27T16:04:53.536Z,100142.13
2019-04-27T16:07:29.888Z,100152.52
2019-04-27T16:10:00.207Z,100149.10
2019-04-27T16:12:31.135Z,100146.27
2019-04-27T16:15:05.039Z,100144.53
2019-04-27T16:17:35.585Z,100143.33
2019-04-27T16:20:07.305Z,100148.11
2019-04-27T16:22:39.074Z,100149.59
2019-04-27T16:25:12.251Z,100140.67
2019-04-27T16:27:43.933Z,100136.54
2019-04-27T16:30:18.044Z,100139.13
2019-04-27T16:32:48.260Z,100139.33
2019-04-27T16:35:22.945Z,100141.62
2019-04-27T16:38:00.278Z,100136.27
2019-04-27T16:40:31.929Z,100139.52
2019-04-27T16:43:03.384Z,100138.45
2019-04-27T16:45:38.792Z,100139.41
2019-04-27T16:48:10.379Z,100144.38
2019-04-27T16:50:41.619Z,100135.64
2019-04-27T16:53:14.189Z,100138.86
2019-04-27T16:55:45.345Z,100139.09
2019-04-27T16:58:20.553Z,100138.13
2019-04-27T17:00:49.988Z,100136.29
2019-04-27T17:03:21.302Z,100143.10
2019-04-27T17:05:52.883Z,100145.26
2019-04-27T17:08:26.843Z,100155.32
2019-04-27T17:11:07.829Z,100161.08
2019-04-27T17:13:33.280Z,100155.38
2019-04-27T17:16:31.059Z,100159.05
2019-04-27T17:19:04.920Z,100161.97
2019-04-27T17:21:38.686Z,100166.13
2019-04-27T17:24:09.916Z,100163.22
2019-04-27T17:26:43.446Z,100163.06
2019-04-27T17:29:20.496Z,100174.27
2019-04-27T17:31:55.132Z,100168.05
2019-04-27T17:34:26.412Z,100167.38
2019-04-27T17:36:59.074Z,100168.08
2019-04-27T17:39:30.679Z,100166.15
2019-04-27T17:42:01.942Z,100171.16
2019-04-27T17:44:33.549Z,100169.09
2019-04-27T17:47:05.134Z,100175.81
2019-04-27T17:49:38.177Z,100174.06
2019-04-27T17:52:13.043Z,100172.72
2019-04-27T17:54:47.323Z,100166.17
2019-04-27T17:57:17.892Z,100171.00
2019-04-27T17:59:51.417Z,100172.37
2019-04-27T18:02:21.933Z,100171.32
2019-04-27T18:04:54.109Z,100172.37
2019-04-27T18:07:25.540Z,100177.03
2019-04-27T18:09:58.387Z,100174.42
2019-04-27T18:12:29.673Z,100180.27
2019-04-27T18:15:01.117Z,100177.34
2019-04-27T18:17:33.265Z,100171.64
2019-04-27T18:20:09.349Z,100174.19
2019-04-27T18:22:45.349Z,100174.84
2019-04-27T18:25:18.669Z,100175.22
2019-04-27T18:28:01.000Z,100175.38
2019-04-27T18:30:38.636Z,100177.80
2019-04-27T18:33:08.767Z,100171.59
2019-04-27T18:35:40.373Z,100171.41
2019-04-27T18:38:11.640Z,100173.02
2019-04-27T18:40:42.758Z,100175.46
2019-04-27T18:43:14.561Z,100171.31
2019-04-27T18:45:46.023Z,100173.92
2019-04-27T18:48:18.827Z,100171.99
2019-04-27T18:50:57.158Z,100169.78
2019-04-27T18:53:30.450Z,100170.40
2019-04-27T18:56:05.306Z,100166.27
2019-04-27T18:58:35.714Z,100165.73
2019-04-27T19:01:08.605Z,100160.56
2019-04-27T19:03:40.146Z,100162.94
2019-04-27T19:06:12.205Z,100163.81
2019-04-27T19:08:43.458Z,100156.78
2019-04-27T19:11:15.109Z,100151.79
2019-04-27T19:13:48.729Z,100154.39
2019-04-27T19:16:22.212Z,100150.23
2019-04-27T19:18:52.526Z,100146.82
2019-04-27T19:21:24.079Z,100155.94
2019-04-27T19:23:55.226Z,100149.21
2019-04-27T19:26:28.943Z,100154.20
2019-04-27T19:29:01.895Z,100147.22
2019-04-27T19:31:35.001Z,100149.63
2019-04-27T19:34:06.654Z,100138.63
2019-04-27T19:36:38.650Z,100142.74
2019-04-27T19:39:13.898Z,100138.56
2019-04-27T19:41:59.958Z,100140.47
2019-04-27T19:44:19.624Z,100147.84
2019-04-27T19:46:50.727Z,100142.86
2019-04-27T19:49:21.911Z,100135.63
2019-04-27T19:51:53.263Z,100134.26
2019-04-27T19:54:24.509Z,100134.27
2019-04-27T19:56:56.154Z,100136.70
2019-04-27T19:59:32.236Z,100133.77
2019-04-27T20:02:05.512Z,100131.72
2019-04-27T20:04:38.290Z,100129.98
2019-04-27T20:07:10.588Z,100130.36
2019-04-27T20:09:43.544Z,100128.63
2019-04-27T20:12:14.823Z,100130.69
2019-04-27T20:14:58.641Z,100132.59
2019-04-27T20:17:31.299Z,100130.16
2019-04-27T20:20:04.293Z,100128.61
2019-04-27T20:22:35.646Z,100136.73
2019-04-27T20:25:07.277Z,100130.67
2019-04-27T20:27:48.741Z,100133.78
2019-04-27T20:30:13.265Z,100136.36
2019-04-27T20:32:45.829Z,100136.53
2019-04-27T20:35:17.501Z,100135.68
2019-04-27T20:37:49.162Z,100140.62
2019-04-27T20:40:21.784Z,100144.76
2019-04-27T20:42:53.387Z,100141.83
2019-04-27T20:45:24.928Z,100143.35
2019-04-27T20:47:56.594Z,100148.69
2019-04-27T20:50:27.943Z,100147.66
2019-04-27T20:53:01.136Z,100148.18
2019-04-27T20:55:32.478Z,100153.33
2019-04-27T20:58:04.131Z,100151.79
2019-04-27T21:00:36.150Z,100143.84
2019-04-27T21:03:14.486Z,100141.96
2019-04-27T21:05:51.140Z,100133.70
2019-04-27T21:08:24.166Z,100140.73
2019-04-27T21:10:55.622Z,100137.29
2019-04-27T21:13:26.799Z,100133.84
2019-04-27T21:15:58.298Z,100131.42
2019-04-27T21:18:31.702Z,100134.02
2019-04-27T21:21:03.164Z,100128.84
2019-04-27T21:23:34.567Z,100134.70
2019-04-27T21:26:06.165Z,100136.94
2019-04-27T21:28:37.611Z,100144.66
2019-04-27T21:31:08.841Z,100143.99
2019-04-27T21:33:40.951Z,100140.70
2019-04-27T21:36:12.577Z,100134.67
2019-04-27T21:38:43.806Z,100140.88
2019-04-27T21:41:15.272Z,100144.98
2019-04-27T21:43:46.718Z,100140.34
2019-04-27T21:46:18.180Z,100139.84
2019-04-27T21:48:50.749Z,100138.63
2019-04-27T21:51:22.103Z,100144.67
2019-04-27T21:54:13.031Z,100142.25
2019-04-27T21:56:44.556Z,100139.16
2019-04-27T21:59:16.005Z,100137.11
2019-04-27T22:01:48.231Z,100140.39
2019-04-27T22:04:19.735Z,100136.09
2019-04-27T22:06:51.404Z,100136.09
2019-04-27T22:09:23.137Z,100137.83
2019-04-27T22:11:54.492Z,100128.72
2019-04-27T22:14:26.242Z,100133.02
2019-04-27T22:16:57.527Z,100130.41
2019-04-27T22:19:30.917Z,100127.84
2019-04-27T22:22:03.517Z,100124.77
2019-04-27T22:24:42.819Z,100125.08
2019-04-27T22:27:12.711Z,100120.95
2019-04-27T22:29:44.371Z,100125.25
2019-04-27T22:32:15.464Z,100117.50
2019-04-27T22:34:47.257Z,100110.27
2019-04-27T22:37:18.508Z,100115.77
2019-04-27T22:39:54.264Z,100113.54
2019-04-27T22:42:43.529Z,100113.34
2019-04-27T22:45:16.717Z,100111.12
2019-04-27T22:47:48.299Z,100111.61
2019-04-27T22:50:21.080Z,100102.65
2019-04-27T22:52:52.279Z,100100.94
2019-04-27T22:55:23.642Z,100096.62
2019-04-27T22:57:56.867Z,100100.58
2019-04-27T23:00:31.039Z,100092.01
2019-04-27T23:03:03.947Z,100094.92
2019-04-27T23:05:35.583Z,100093.02
2019-04-27T23:08:07.036Z,100098.52
2019-04-27T23:10:38.484Z,100097.16
2019-04-27T23:13:11.236Z,100101.80
2019-04-27T23:15:44.063Z,100096.27
2019-04-27T23:18:15.804Z,100096.92
2019-04-27T23:20:47.459Z,100102.27
2019-04-27T23:23:18.966Z,100097.61
2019-04-27T23:25:51.321Z,100098.97
2019-04-27T23:28:22.633Z,100099.47
2019-04-27T23:31:02.498Z,100094.81
2019-04-27T23:33:33.932Z,100091.50
2019-04-27T23:36:05.547Z,100084.13
2019-04-27T23:38:37.055Z,100092.88
2019-04-27T23:41:08.630Z,100088.75
2019-04-27T23:43:40.136Z,100091.17
2019-04-27T23:46:11.864Z,100092.52
2019-04-27T23:48:43.383Z,100094.23
2019-04-27T23:51:22.371Z,100090.77
2019-04-27T23:53:53.929Z,100082.66
2019-04-27T23:56:25.382Z,100082.48
2019-04-27T23:58:57.027Z,100080.22
